Time;durP1;ratioP1;P1;durP2;ratioP2;P2;SDS_P1;SDS_P2;PMS_P1;PMS_P2;Temp;Humidity;BMP_temperature;BMP_pressure;BME280_temperature;BME280_humidity;BME280_pressure;Samples;Min_cycle;Max_cycle;Signal;HPM_P1;HPM_P2
2022/11/25 00:00:09;;;;;;;;;;;8.50;99.90;;;;;;5094602;28;19916;-82
2022/11/25 00:02:35;;;;;;;;;;;8.50;99.90;;;;;;5098234;28;19908;-81
2022/11/25 00:05:00;;;;;;;;;;;8.50;99.90;;;;;;5094731;28;20002;-83
2022/11/25 00:07:26;;;;;;;;;;;8.50;99.90;;;;;;5095114;28;19908;-82
2022/11/25 00:09:51;;;;;;;;;;;8.60;99.90;;;;;;5094632;28;20346;-82
2022/11/25 00:12:17;;;;;;;;;;;8.50;99.90;;;;;;5093305;28;20268;-81
2022/11/25 00:14:42;;;;;;;;;;;8.60;99.90;;;;;;5096454;28;19932;-82
2022/11/25 00:17:07;;;;;;;;;;;8.50;99.90;;;;;;5092770;28;20384;-81
2022/11/25 00:19:33;;;;;;;;;;;8.50;99.90;;;;;;5093475;28;19919;-82
2022/11/25 00:21:58;;;;;;;;;;;8.50;99.90;;;;;;5093357;28;19908;-81
2022/11/25 00:24:24;;;;;;;;;;;8.50;99.90;;;;;;5093720;28;19912;-82
2022/11/25 00:26:49;;;;;;;;;;;8.40;99.90;;;;;;5093138;28;19908;-82
2022/11/25 00:29:15;;;;;;;;;;;8.40;99.90;;;;;;5094461;28;19978;-82
2022/11/25 00:31:40;;;;;;;;;;;8.40;99.90;;;;;;5093188;28;19916;-83
2022/11/25 00:34:06;;;;;;;;;;;8.40;99.90;;;;;;5093183;28;20000;-81
2022/11/25 00:36:33;;;;;;;;;;;8.40;99.90;;;;;;5093288;28;20498;-82
2022/11/25 00:39:06;;;;;;;;;;;8.40;99.90;;;;;;5093426;28;19961;-82
2022/11/25 00:44:35;;;;;;;;;;;8.50;99.90;;;;;;5097644;28;20381;-82
2022/11/25 00:47:03;;;;;;;;;;;8.50;99.90;;;;;;5074674;28;19920;-82
2022/11/25 00:49:29;;;;;;;;;;;8.40;99.90;;;;;;5072899;28;19912;-81
2022/11/25 00:51:54;;;;;;;;;;;8.50;99.90;;;;;;5073610;28;19914;-81
2022/11/25 00:54:20;;;;;;;;;;;8.50;99.90;;;;;;5074087;28;19908;-82
2022/11/25 00:56:45;;;;;;;;;;;8.60;99.90;;;;;;5074176;28;19909;-82
2022/11/25 00:59:11;;;;;;;;;;;8.50;99.90;;;;;;5072639;28;20304;-81
2022/11/25 01:01:36;;;;;;;;;;;8.50;99.90;;;;;;5074154;28;19912;-82
2022/11/25 01:04:02;;;;;;;;;;;8.60;99.90;;;;;;5072509;28;19908;-82
2022/11/25 01:06:28;;;;;;;;;;;8.60;99.90;;;;;;5072601;28;20356;-83
2022/11/25 01:08:53;;;;;;;;;;;8.70;99.90;;;;;;5074709;28;19912;-82
2022/11/25 01:11:20;;;;;;;;;;;8.70;99.90;;;;;;5075408;28;19915;-82
2022/11/25 01:13:45;;;;;;;;;;;8.80;99.90;;;;;;5076226;28;19958;-82
2022/11/25 01:16:12;;;;;;;;;;;8.80;99.90;;;;;;5074483;28;20393;-82
2022/11/25 01:18:37;;;;;;;;;;;8.90;99.90;;;;;;5072973;28;19909;-81
2022/11/25 01:21:07;;;;;;;;;;;8.90;99.90;;;;;;5072430;28;19962;-81
2022/11/25 01:23:32;;;;;;;;;;;8.90;99.90;;;;;;5073827;28;20281;-81
2022/11/25 01:26:02;;;;;;;;;;;8.90;99.90;;;;;;5072964;28;19944;-81
2022/11/25 01:28:27;;;;;;;;;;;8.90;99.90;;;;;;5072558;28;19916;-81
2022/11/25 01:30:59;;;;;;;;;;;9.00;99.90;;;;;;5072674;28;19912;-81
2022/11/25 01:33:25;;;;;;;;;;;9.00;99.90;;;;;;5072548;28;19908;-82
2022/11/25 01:35:50;;;;;;;;;;;8.90;99.90;;;;;;5072411;28;19916;-82
2022/11/25 01:38:16;;;;;;;;;;;9.00;99.90;;;;;;5073391;28;19992;-81
2022/11/25 01:40:41;;;;;;;;;;;9.00;99.90;;;;;;5074648;28;19916;-82
2022/11/25 01:43:12;;;;;;;;;;;9.00;99.90;;;;;;5072473;28;19955;-82
2022/11/25 01:45:37;;;;;;;;;;;9.00;99.90;;;;;;5072703;28;19915;-83
2022/11/25 01:48:08;;;;;;;;;;;9.00;99.90;;;;;;5072664;28;19908;-82
2022/11/25 01:50:35;;;;;;;;;;;9.00;99.90;;;;;;5074354;28;19912;-83
2022/11/25 01:53:03;;;;;;;;;;;9.10;99.90;;;;;;5073696;28;19909;-81
2022/11/25 01:55:30;;;;;;;;;;;9.10;99.90;;;;;;5072107;28;19908;-81
2022/11/25 01:58:02;;;;;;;;;;;9.00;99.90;;;;;;5072066;28;19952;-82
2022/11/25 02:00:28;;;;;;;;;;;9.10;99.90;;;;;;5073429;28;19958;-82
2022/11/25 02:02:54;;;;;;;;;;;9.10;99.90;;;;;;5071853;28;20389;-81
2022/11/25 02:05:21;;;;;;;;;;;9.10;99.90;;;;;;5072937;28;20280;-82
2022/11/25 02:07:48;;;;;;;;;;;9.10;99.90;;;;;;5074785;28;19908;-82
2022/11/25 02:10:15;;;;;;;;;;;9.20;99.90;;;;;;5074830;28;19915;-82
2022/11/25 02:12:43;;;;;;;;;;;9.20;99.90;;;;;;5074567;28;19912;-82
2022/11/25 02:15:09;;;;;;;;;;;9.20;99.90;;;;;;5076677;28;20281;-82
2022/11/25 02:17:35;;;;;;;;;;;9.30;99.90;;;;;;5074790;28;20003;-81
2022/11/25 02:20:07;;;;;;;;;;;9.30;99.90;;;;;;5075435;28;19919;-81
2022/11/25 02:22:35;;;;;;;;;;;9.30;99.90;;;;;;5071779;28;19955;-81
2022/11/25 02:25:27;;;;;;;;;;;9.40;99.90;;;;;;5071655;28;19919;-81
2022/11/25 02:27:58;;;;;;;;;;;9.40;99.90;;;;;;5070864;28;19908;-83
2022/11/25 02:30:24;;;;;;;;;;;9.40;99.90;;;;;;5072175;28;20348;-84
2022/11/25 02:32:49;;;;;;;;;;;9.40;99.90;;;;;;5072046;28;19909;-81
2022/11/25 02:35:24;;;;;;;;;;;9.40;99.90;;;;;;5071846;28;20015;-81
2022/11/25 02:37:49;;;;;;;;;;;9.40;99.90;;;;;;5072240;28;19948;-81
2022/11/25 02:40:16;;;;;;;;;;;9.40;99.90;;;;;;5073796;28;20333;-81
2022/11/25 02:42:42;;;;;;;;;;;9.40;99.90;;;;;;5075661;28;19912;-82
2022/11/25 02:45:10;;;;;;;;;;;9.40;99.90;;;;;;5075180;28;19908;-81
2022/11/25 02:47:36;;;;;;;;;;;9.40;99.90;;;;;;5075568;28;19912;-82
2022/11/25 02:50:02;;;;;;;;;;;9.40;99.90;;;;;;5075812;28;19908;-82
2022/11/25 02:52:27;;;;;;;;;;;9.50;99.90;;;;;;5076589;28;19916;-82
2022/11/25 02:54:53;;;;;;;;;;;9.50;99.90;;;;;;5075673;28;19908;-83
2022/11/25 02:57:18;;;;;;;;;;;9.50;99.90;;;;;;5076440;28;20421;-82
2022/11/25 02:59:44;;;;;;;;;;;9.50;99.90;;;;;;5074956;28;19920;-82
2022/11/25 03:02:09;;;;;;;;;;;9.50;99.90;;;;;;5075420;28;19999;-81
2022/11/25 03:04:35;;;;;;;;;;;9.50;99.90;;;;;;5074802;28;19962;-83
2022/11/25 03:07:02;;;;;;;;;;;9.60;99.90;;;;;;5074882;28;19958;-82
2022/11/25 03:09:27;;;;;;;;;;;9.60;99.90;;;;;;5074436;28;19947;-82
2022/11/25 03:14:37;;;;;;;;;;;9.60;99.90;;;;;;5076135;28;19915;-83
2022/11/25 03:17:02;;;;;;;;;;;9.70;99.90;;;;;;5074551;28;20374;-82
2022/11/25 03:19:28;;;;;;;;;;;9.70;99.90;;;;;;5074351;28;19973;-82
2022/11/25 03:21:53;;;;;;;;;;;9.70;99.90;;;;;;5074330;28;19913;-82
2022/11/25 03:24:18;;;;;;;;;;;9.60;99.90;;;;;;5076232;28;19909;-82
2022/11/25 03:26:44;;;;;;;;;;;9.60;99.90;;;;;;5074331;28;20001;-82
2022/11/25 03:29:09;;;;;;;;;;;9.60;99.90;;;;;;5075529;28;19915;-81
2022/11/25 03:31:35;;;;;;;;;;;9.60;99.90;;;;;;5075684;28;20408;-81
2022/11/25 03:34:00;;;;;;;;;;;9.60;99.90;;;;;;5074290;28;19908;-81
2022/11/25 03:36:26;;;;;;;;;;;9.60;99.90;;;;;;5075201;28;19909;-81
2022/11/25 03:38:51;;;;;;;;;;;9.70;99.90;;;;;;5074111;28;19954;-81
2022/11/25 03:41:17;;;;;;;;;;;9.70;99.90;;;;;;5077336;28;20258;-82
2022/11/25 03:43:42;;;;;;;;;;;9.80;99.90;;;;;;5077831;28;19909;-81
2022/11/25 03:46:07;;;;;;;;;;;9.70;99.90;;;;;;5074250;28;20011;-81
2022/11/25 03:48:33;;;;;;;;;;;9.80;99.90;;;;;;5073410;28;19973;-81
2022/11/25 03:50:58;;;;;;;;;;;9.80;99.90;;;;;;5074378;28;19944;-82
2022/11/25 03:53:24;;;;;;;;;;;9.80;99.90;;;;;;5076737;28;19909;-82
2022/11/25 03:55:49;;;;;;;;;;;9.80;99.90;;;;;;5074855;28;19951;-82
2022/11/25 03:58:15;;;;;;;;;;;9.80;99.90;;;;;;5113243;22;20309;-80
2022/11/25 04:00:40;;;;;;;;;;;9.80;99.90;;;;;;5073936;28;19931;-79
2022/11/25 04:03:06;;;;;;;;;;;9.80;99.90;;;;;;5075076;28;19919;-79
2022/11/25 04:05:31;;;;;;;;;;;9.90;99.90;;;;;;5073495;28;19908;-79
2022/11/25 04:07:56;;;;;;;;;;;9.80;99.90;;;;;;5075274;28;20011;-79
2022/11/25 04:10:22;;;;;;;;;;;9.90;99.90;;;;;;5075092;28;19908;-80
2022/11/25 04:12:47;;;;;;;;;;;9.90;99.90;;;;;;5074842;28;19954;-79
2022/11/25 04:15:14;;;;;;;;;;;9.90;99.90;;;;;;5075038;28;19916;-79
2022/11/25 04:17:39;;;;;;;;;;;9.90;99.90;;;;;;5073335;28;19923;-80
2022/11/25 04:20:05;;;;;;;;;;;10.00;99.90;;;;;;5071488;28;20389;-79
2022/11/25 04:22:31;;;;;;;;;;;10.00;99.90;;;;;;5080255;28;19912;-79
2022/11/25 04:24:56;;;;;;;;;;;10.00;99.90;;;;;;5086530;28;19935;-79
2022/11/25 04:27:22;;;;;;;;;;;9.90;99.90;;;;;;5086482;28;19915;-79
2022/11/25 04:29:47;;;;;;;;;;;9.90;99.90;;;;;;5095090;28;19915;-79
2022/11/25 04:32:13;;;;;;;;;;;9.80;99.90;;;;;;5094657;28;19908;-79
2022/11/25 04:34:38;;;;;;;;;;;9.80;99.90;;;;;;5094618;28;19931;-79
2022/11/25 04:37:03;;;;;;;;;;;9.80;99.90;;;;;;5093271;28;20003;-80
2022/11/25 04:39:29;;;;;;;;;;;9.70;99.90;;;;;;5094220;28;20018;-80
2022/11/25 04:42:30;;;;;;;;;;;9.70;99.90;;;;;;5094112;28;19915;-80
2022/11/25 04:44:40;;;;;;;;;;;9.70;99.90;;;;;;5094322;28;19931;-81
2022/11/25 04:47:05;;;;;;;;;;;9.60;99.90;;;;;;5094287;28;20103;-80
2022/11/25 04:49:31;;;;;;;;;;;9.70;99.90;;;;;;5092974;28;19908;-80
2022/11/25 04:51:56;;;;;;;;;;;9.60;99.90;;;;;;5092954;28;20323;-80
2022/11/25 04:54:22;;;;;;;;;;;9.50;99.90;;;;;;5094722;28;19954;-79
2022/11/25 04:56:47;;;;;;;;;;;9.50;99.90;;;;;;5092869;28;20401;-79
2022/11/25 05:01:57;;;;;;;;;;;9.50;99.90;;;;;;5094189;28;19937;-80
2022/11/25 05:04:22;;;;;;;;;;;9.40;99.90;;;;;;5092618;28;19916;-80
2022/11/25 05:06:50;;;;;;;;;;;9.40;99.90;;;;;;5086403;28;20443;-80
2022/11/25 05:09:16;;;;;;;;;;;9.40;99.90;;;;;;5072309;28;19915;-80
2022/11/25 05:11:41;;;;;;;;;;;9.40;99.90;;;;;;5091382;28;19908;-80
2022/11/25 05:14:07;;;;;;;;;;;9.40;99.90;;;;;;5089171;28;19932;-80
2022/11/25 05:16:32;;;;;;;;;;;9.40;99.90;;;;;;5089034;28;19909;-80
2022/11/25 05:18:58;;;;;;;;;;;9.40;99.90;;;;;;5073605;28;19912;-80
2022/11/25 05:21:23;;;;;;;;;;;9.40;99.90;;;;;;5072929;28;20003;-80
2022/11/25 05:23:49;;;;;;;;;;;9.40;99.90;;;;;;5073251;28;19934;-82
2022/11/25 05:26:14;;;;;;;;;;;9.40;99.90;;;;;;5073507;28;19908;-80
2022/11/25 05:28:40;;;;;;;;;;;9.40;99.90;;;;;;5072117;28;19913;-80
2022/11/25 05:31:05;;;;;;;;;;;9.30;99.90;;;;;;5071753;28;19953;-82
2022/11/25 05:33:31;;;;;;;;;;;9.40;99.90;;;;;;5072334;28;19923;-80
2022/11/25 05:35:57;;;;;;;;;;;9.40;99.90;;;;;;5072083;28;19935;-80
2022/11/25 05:38:23;;;;;;;;;;;9.40;99.90;;;;;;5073578;28;19932;-81
2022/11/25 05:40:48;;;;;;;;;;;9.40;99.90;;;;;;5071803;28;19913;-81
2022/11/25 05:43:14;;;;;;;;;;;9.30;99.90;;;;;;5072009;28;19909;-81
2022/11/25 05:45:39;;;;;;;;;;;9.30;99.90;;;;;;5089422;28;19915;-81
2022/11/25 05:48:05;;;;;;;;;;;9.30;99.90;;;;;;5073749;28;20294;-82
2022/11/25 05:50:30;;;;;;;;;;;9.30;99.90;;;;;;5072742;28;19962;-81
2022/11/25 05:52:56;;;;;;;;;;;9.30;99.90;;;;;;5072809;28;19913;-81
2022/11/25 05:55:21;;;;;;;;;;;9.30;99.90;;;;;;5073780;28;19970;-81
2022/11/25 05:57:47;;;;;;;;;;;9.30;99.90;;;;;;5072329;28;19986;-82
2022/11/25 06:00:12;;;;;;;;;;;9.30;99.90;;;;;;5089462;28;20010;-82
2022/11/25 06:02:38;;;;;;;;;;;9.30;99.90;;;;;;5073858;28;20274;-82
2022/11/25 06:05:03;;;;;;;;;;;9.30;99.90;;;;;;5073860;28;19908;-81
2022/11/25 06:07:29;;;;;;;;;;;9.30;99.90;;;;;;5074814;28;19908;-81
2022/11/25 06:09:54;;;;;;;;;;;9.30;99.90;;;;;;5073095;28;20289;-83
2022/11/25 06:12:21;;;;;;;;;;;9.30;99.90;;;;;;5074112;28;19951;-81
2022/11/25 06:14:46;;;;;;;;;;;9.30;99.90;;;;;;5073318;28;19913;-81
2022/11/25 06:17:12;;;;;;;;;;;9.30;99.90;;;;;;5075717;28;20049;-81
2022/11/25 06:19:37;;;;;;;;;;;9.30;99.90;;;;;;5076873;28;20011;-82
2022/11/25 06:22:03;;;;;;;;;;;9.30;99.90;;;;;;5077364;28;20006;-82
2022/11/25 06:24:29;;;;;;;;;;;9.30;99.90;;;;;;5076557;28;19927;-81
2022/11/25 06:26:54;;;;;;;;;;;9.30;99.90;;;;;;5077949;28;20269;-81
2022/11/25 06:29:20;;;;;;;;;;;9.30;99.90;;;;;;5076308;28;19908;-81
2022/11/25 06:31:47;;;;;;;;;;;9.30;99.90;;;;;;5092853;28;19974;-81
2022/11/25 06:34:13;;;;;;;;;;;9.40;99.90;;;;;;5077882;28;20348;-83
2022/11/25 06:36:38;;;;;;;;;;;9.40;99.90;;;;;;5077525;28;19909;-81
2022/11/25 06:39:04;;;;;;;;;;;9.40;99.90;;;;;;5076321;28;20255;-81
2022/11/25 06:41:29;;;;;;;;;;;9.50;99.90;;;;;;5076039;28;20013;-81
2022/11/25 06:43:55;;;;;;;;;;;9.50;99.90;;;;;;5075528;28;19983;-81
2022/11/25 06:46:20;;;;;;;;;;;9.50;99.90;;;;;;5075105;28;19909;-81
2022/11/25 06:48:45;;;;;;;;;;;9.50;99.90;;;;;;5074815;28;20383;-81
2022/11/25 06:51:12;;;;;;;;;;;9.50;99.90;;;;;;5074685;28;20309;-81
2022/11/25 06:53:38;;;;;;;;;;;9.50;99.90;;;;;;5091782;28;20384;-81
2022/11/25 06:56:10;;;;;;;;;;;9.50;99.90;;;;;;5074542;28;19908;-83
2022/11/25 06:58:36;;;;;;;;;;;9.40;99.90;;;;;;5075705;28;19920;-81
2022/11/25 07:01:18;;;;;;;;;;;9.30;99.90;;;;;;5074336;28;19916;-81
2022/11/25 07:03:45;;;;;;;;;;;9.30;99.90;;;;;;5075737;28;20476;-82
2022/11/25 07:06:11;;;;;;;;;;;9.20;99.90;;;;;;5075786;28;20369;-81
2022/11/25 07:08:37;;;;;;;;;;;9.10;99.90;;;;;;5074322;28;20286;-81
2022/11/25 07:11:16;;;;;;;;;;;9.00;99.90;;;;;;5073989;28;19912;-81
2022/11/25 07:13:41;;;;;;;;;;;9.00;99.90;;;;;;5075623;28;19958;-81
2022/11/25 07:16:07;;;;;;;;;;;9.00;99.90;;;;;;5074452;28;19908;-81
2022/11/25 07:18:33;;;;;;;;;;;8.90;99.90;;;;;;5074179;28;19912;-82
2022/11/25 07:21:25;;;;;;;;;;;8.90;99.90;;;;;;5073869;28;20317;-81
2022/11/25 07:23:51;;;;;;;;;;;8.90;99.90;;;;;;5073244;28;19909;-81
2022/11/25 07:26:18;;;;;;;;;;;8.80;99.90;;;;;;5074019;28;19912;-82
2022/11/25 07:28:43;;;;;;;;;;;8.70;99.90;;;;;;5090936;28;19916;-82
2022/11/25 07:31:16;;;;;;;;;;;8.70;99.90;;;;;;5075877;28;19909;-81
2022/11/25 07:33:42;;;;;;;;;;;8.70;99.90;;;;;;5074364;28;19934;-81
2022/11/25 07:36:09;;;;;;;;;;;8.70;99.90;;;;;;5074639;28;20014;-81
2022/11/25 07:38:34;;;;;;;;;;;8.60;99.90;;;;;;5078195;28;19909;-81
2022/11/25 07:41:07;;;;;;;;;;;8.60;99.90;;;;;;5078347;28;19919;-81
2022/11/25 07:43:33;;;;;;;;;;;8.50;99.90;;;;;;5073822;28;20007;-82
2022/11/25 07:46:07;;;;;;;;;;;8.50;99.90;;;;;;5074964;28;19956;-81
2022/11/25 07:48:32;;;;;;;;;;;8.50;99.90;;;;;;5074836;28;20255;-81
2022/11/25 07:50:57;;;;;;;;;;;8.40;99.90;;;;;;5081037;28;19915;-82
2022/11/25 07:53:24;;;;;;;;;;;8.50;99.90;;;;;;5079943;28;19913;-82
2022/11/25 07:55:50;;;;;;;;;;;8.50;99.90;;;;;;5080766;28;19908;-82
2022/11/25 07:58:15;;;;;;;;;;;8.50;99.90;;;;;;5079945;28;19928;-82
2022/11/25 08:00:41;;;;;;;;;;;8.50;99.90;;;;;;5081001;28;19919;-81
2022/11/25 08:03:06;;;;;;;;;;;8.50;99.90;;;;;;5079955;28;19915;-82
2022/11/25 08:05:32;;;;;;;;;;;8.60;99.90;;;;;;5080616;28;20262;-82
2022/11/25 08:07:57;;;;;;;;;;;8.60;99.90;;;;;;5080181;28;20000;-82
2022/11/25 08:10:23;;;;;;;;;;;8.70;99.90;;;;;;5080898;28;19915;-82
2022/11/25 08:12:50;;;;;;;;;;;8.70;99.90;;;;;;5079226;28;20423;-82
2022/11/25 08:15:15;;;;;;;;;;;8.80;99.90;;;;;;5080142;28;19920;-82
2022/11/25 08:17:41;;;;;;;;;;;8.80;99.90;;;;;;5080348;28;20397;-81
2022/11/25 08:20:07;;;;;;;;;;;8.90;99.90;;;;;;5080101;28;19920;-82
2022/11/25 08:22:32;;;;;;;;;;;8.90;99.90;;;;;;5080130;28;19933;-82
2022/11/25 08:24:58;;;;;;;;;;;9.00;99.90;;;;;;5081064;28;19916;-81
2022/11/25 08:27:23;;;;;;;;;;;9.00;99.90;;;;;;5081652;28;19908;-81
2022/11/25 08:29:48;;;;;;;;;;;9.10;99.90;;;;;;5081070;28;19943;-82
2022/11/25 08:32:14;;;;;;;;;;;9.20;99.90;;;;;;5080543;28;20287;-83
2022/11/25 08:34:39;;;;;;;;;;;9.20;99.90;;;;;;5081289;28;19913;-81
2022/11/25 08:37:05;;;;;;;;;;;9.30;99.90;;;;;;5080585;28;19963;-82
2022/11/25 08:39:30;;;;;;;;;;;9.40;99.90;;;;;;5079370;28;19908;-82
2022/11/25 08:41:56;;;;;;;;;;;9.40;99.90;;;;;;5081355;28;20335;-82
2022/11/25 08:44:21;;;;;;;;;;;9.50;99.90;;;;;;5080769;28;19916;-82
2022/11/25 08:46:47;;;;;;;;;;;9.50;99.90;;;;;;5079761;28;19961;-83
2022/11/25 08:49:15;;;;;;;;;;;9.60;99.90;;;;;;5079906;28;19931;-81
2022/11/25 08:51:41;;;;;;;;;;;9.70;99.90;;;;;;5079642;28;19920;-83
2022/11/25 08:54:07;;;;;;;;;;;9.70;99.90;;;;;;5081247;28;20022;-82
2022/11/25 08:56:33;;;;;;;;;;;9.80;99.90;;;;;;5080600;28;19919;-82
2022/11/25 08:58:59;;;;;;;;;;;9.80;99.90;;;;;;5077354;28;19916;-82
2022/11/25 09:01:24;;;;;;;;;;;9.80;99.90;;;;;;5071561;28;19916;-82
2022/11/25 09:03:51;;;;;;;;;;;9.90;99.90;;;;;;5072996;28;19908;-83
2022/11/25 09:06:17;;;;;;;;;;;10.00;99.90;;;;;;5071575;28;19919;-82
2022/11/25 09:08:43;;;;;;;;;;;10.00;99.90;;;;;;5071511;28;19908;-83
2022/11/25 09:11:09;;;;;;;;;;;10.10;99.90;;;;;;5071210;28;20298;-82
2022/11/25 09:13:35;;;;;;;;;;;10.10;99.90;;;;;;5071396;28;20376;-83
2022/11/25 09:16:00;;;;;;;;;;;10.20;99.90;;;;;;5071335;28;20009;-82
2022/11/25 09:18:28;;;;;;;;;;;10.30;99.90;;;;;;5071368;28;19916;-82
2022/11/25 09:20:55;;;;;;;;;;;10.30;99.90;;;;;;5071115;28;19912;-82
2022/11/25 09:23:22;;;;;;;;;;;10.40;99.90;;;;;;5071270;28;19909;-82
2022/11/25 09:25:52;;;;;;;;;;;10.40;99.90;;;;;;5072661;28;20392;-83
2022/11/25 09:28:17;;;;;;;;;;;10.50;99.90;;;;;;5071517;28;19915;-84
2022/11/25 09:30:43;;;;;;;;;;;10.50;99.90;;;;;;5071300;28;20011;-82
2022/11/25 09:33:08;;;;;;;;;;;10.50;99.90;;;;;;5071071;28;19908;-82
2022/11/25 09:35:35;;;;;;;;;;;10.60;99.90;;;;;;5071444;28;20362;-82
2022/11/25 09:38:00;;;;;;;;;;;10.70;99.90;;;;;;5071238;28;20008;-82
2022/11/25 09:40:33;;;;;;;;;;;10.80;99.90;;;;;;5071264;28;20361;-82
2022/11/25 09:49:06;;;;;;;;;;;10.90;99.90;;;;;;5072395;28;19935;-83
2022/11/25 09:51:35;;;;;;;;;;;11.00;99.90;;;;;;5074505;28;19908;-83
2022/11/25 09:54:09;;;;;;;;;;;11.20;99.90;;;;;;5076608;28;20322;-83
2022/11/25 09:56:46;;;;;;;;;;;11.20;99.90;;;;;;5071624;28;20346;-81
2022/11/25 09:59:25;;;;;;;;;;;11.30;99.90;;;;;;5070111;28;19916;-81
2022/11/25 10:02:01;;;;;;;;;;;11.30;99.90;;;;;;5083457;22;20411;-83
2022/11/25 10:04:34;;;;;;;;;;;11.50;99.90;;;;;;5075831;28;19909;-83
2022/11/25 10:07:03;;;;;;;;;;;11.60;99.90;;;;;;5071382;28;19915;-83
2022/11/25 10:09:31;;;;;;;;;;;11.70;99.90;;;;;;5095702;28;19973;-82
2022/11/25 10:12:04;;;;;;;;;;;11.80;99.90;;;;;;5061369;28;19928;-82
2022/11/25 10:14:33;;;;;;;;;;;11.70;99.90;;;;;;5056008;28;19955;-81
2022/11/25 10:17:08;;;;;;;;;;;11.70;99.90;;;;;;5051827;28;19938;-83
2022/11/25 10:19:52;;;;;;;;;;;11.80;99.90;;;;;;5056781;28;19968;-82
2022/11/25 10:22:25;;;;;;;;;;;11.80;99.90;;;;;;5055956;28;19917;-82
2022/11/25 10:24:56;;;;;;;;;;;11.90;99.90;;;;;;5054467;28;20092;-80
2022/11/25 10:27:30;;;;;;;;;;;12.20;99.90;;;;;;5057367;28;19913;-80
2022/11/25 10:30:00;;;;;;;;;;;12.20;99.90;;;;;;5065750;28;19909;-81
2022/11/25 10:32:27;;;;;;;;;;;12.40;99.90;;;;;;5055453;28;19951;-81
2022/11/25 10:34:56;;;;;;;;;;;12.80;99.90;;;;;;5056732;28;19948;-81
2022/11/25 10:37:30;;;;;;;;;;;13.00;99.90;;;;;;5055776;28;19908;-81
2022/11/25 10:39:56;;;;;;;;;;;13.10;99.90;;;;;;5050689;28;19909;-80
2022/11/25 10:42:23;;;;;;;;;;;13.20;99.90;;;;;;5056514;28;20400;-80
2022/11/25 10:44:49;;;;;;;;;;;13.40;99.90;;;;;;5055548;28;19971;-79
2022/11/25 10:47:15;;;;;;;;;;;13.40;99.90;;;;;;5072518;28;19935;-80
2022/11/25 10:50:00;;;;;;;;;;;13.40;99.90;;;;;;5057664;28;20350;-80
2022/11/25 10:52:27;;;;;;;;;;;13.50;99.90;;;;;;5056471;28;19908;-80
2022/11/25 10:55:07;;;;;;;;;;;13.40;99.90;;;;;;5088863;28;19916;-79
2022/11/25 10:57:32;;;;;;;;;;;13.60;99.90;;;;;;5072276;28;19916;-79
2022/11/25 10:59:59;;;;;;;;;;;13.70;99.90;;;;;;5057273;28;19956;-80
2022/11/25 11:02:26;;;;;;;;;;;14.20;99.90;;;;;;5055010;28;20453;-81
2022/11/25 11:04:55;;;;;;;;;;;14.80;99.90;;;;;;5086713;28;19939;-81
2022/11/25 11:07:20;;;;;;;;;;;15.40;99.90;;;;;;5051706;28;19996;-81
2022/11/25 11:09:47;;;;;;;;;;;15.50;99.90;;;;;;5067180;28;19955;-81
2022/11/25 11:12:13;;;;;;;;;;;15.60;99.90;;;;;;5067381;28;20007;-80
2022/11/25 11:14:39;;;;;;;;;;;15.60;99.90;;;;;;5055419;28;19952;-80
2022/11/25 11:17:04;;;;;;;;;;;15.80;99.90;;;;;;5055048;28;19920;-81
2022/11/25 11:19:30;;;;;;;;;;;16.20;99.90;;;;;;5055152;28;19915;-81
2022/11/25 11:21:57;;;;;;;;;;;15.40;99.90;;;;;;5054505;28;19999;-80
2022/11/25 11:24:22;;;;;;;;;;;15.40;99.90;;;;;;5086744;28;19916;-80
2022/11/25 11:26:59;;;;;;;;;;;16.40;99.90;;;;;;5054770;28;19909;-81
2022/11/25 11:29:25;;;;;;;;;;;17.20;99.90;;;;;;5087162;28;19963;-82
2022/11/25 11:31:55;;;;;;;;;;;17.50;99.90;;;;;;5054764;28;19920;-83
2022/11/25 11:34:20;;;;;;;;;;;18.40;99.90;;;;;;5055035;28;20374;-82
2022/11/25 11:37:01;;;;;;;;;;;19.80;99.90;;;;;;5069639;28;19909;-82
2022/11/25 11:39:27;;;;;;;;;;;20.40;99.90;;;;;;5070484;28;19909;-82
2022/11/25 11:42:03;;;;;;;;;;;21.60;99.90;;;;;;5069786;28;20358;-83
2022/11/25 11:44:42;;;;;;;;;;;22.30;99.90;;;;;;5087883;28;20378;-83
2022/11/25 11:47:16;;;;;;;;;;;23.30;99.90;;;;;;5088344;28;20549;-82
2022/11/25 11:49:56;;;;;;;;;;;23.90;99.90;;;;;;5053997;28;20362;-83
2022/11/25 11:52:32;;;;;;;;;;;23.40;99.10;;;;;;5053701;28;19909;-83
2022/11/25 11:55:11;;;;;;;;;;;23.30;98.60;;;;;;5055131;28;20388;-82
2022/11/25 11:57:52;;;;;;;;;;;23.10;98.00;;;;;;5070735;28;20270;-82
2022/11/25 12:00:18;;;;;;;;;;;22.10;99.80;;;;;;5054771;28;19946;-83
2022/11/25 12:03:04;;;;;;;;;;;21.40;99.90;;;;;;5087376;28;20333;-82
2022/11/25 12:05:33;;;;;;;;;;;22.10;99.90;;;;;;5086316;28;19992;-82
2022/11/25 12:07:59;;;;;;;;;;;22.50;99.10;;;;;;5054557;28;19919;-82
2022/11/25 12:10:24;;;;;;;;;;;22.70;97.80;;;;;;5052996;28;20285;-80
2022/11/25 12:12:54;;;;;;;;;;;22.20;99.10;;;;;;5054300;28;19909;-80
2022/11/25 12:15:38;;;;;;;;;;;22.10;99.10;;;;;;5053368;28;19921;-81
2022/11/25 12:18:11;;;;;;;;;;;21.20;99.00;;;;;;5057101;28;20011;-82
2022/11/25 12:20:54;;;;;;;;;;;20.90;99.90;;;;;;5055855;28;19909;-82
2022/11/25 12:23:27;;;;;;;;;;;21.90;99.90;;;;;;5070791;28;19999;-81
2022/11/25 12:25:55;;;;;;;;;;;22.50;97.30;;;;;;5055814;28;19909;-81
2022/11/25 12:28:27;;;;;;;;;;;21.40;98.50;;;;;;5059510;28;19913;-82
2022/11/25 12:31:11;;;;;;;;;;;20.40;99.90;;;;;;5056797;28;19920;-83
2022/11/25 12:33:47;;;;;;;;;;;19.60;99.90;;;;;;5057175;28;19909;-81
2022/11/25 12:36:16;;;;;;;;;;;19.30;99.90;;;;;;5055760;28;19943;-81
2022/11/25 12:38:46;;;;;;;;;;;20.40;99.90;;;;;;5056191;28;19973;-81
2022/11/25 12:41:11;;;;;;;;;;;21.70;99.90;;;;;;5057675;28;20344;-81
2022/11/25 12:43:46;;;;;;;;;;;22.00;99.90;;;;;;5058185;28;19996;-81
2022/11/25 12:46:17;;;;;;;;;;;21.20;99.60;;;;;;5071198;28;20366;-82
2022/11/25 12:48:43;;;;;;;;;;;20.10;99.90;;;;;;5056310;28;19916;-81
2022/11/25 12:51:27;;;;;;;;;;;19.20;99.90;;;;;;5054014;28;19917;-80
2022/11/25 12:53:53;;;;;;;;;;;19.00;99.90;;;;;;5059015;28;19976;-81
2022/11/25 12:56:21;;;;;;;;;;;18.60;99.90;;;;;;5060357;28;19940;-81
2022/11/25 12:59:13;;;;;;;;;;;18.70;99.90;;;;;;5055407;28;19962;-81
2022/11/25 13:01:55;;;;;;;;;;;18.40;99.90;;;;;;5053273;28;19920;-81
2022/11/25 13:04:39;;;;;;;;;;;18.70;99.90;;;;;;5060433;28;20401;-80
2022/11/25 13:07:05;;;;;;;;;;;19.40;99.90;;;;;;5059811;28;19909;-81
2022/11/25 13:09:49;;;;;;;;;;;20.10;99.90;;;;;;5059314;28;20008;-82
2022/11/25 13:12:14;;;;;;;;;;;19.80;99.90;;;;;;5053425;28;19948;-81
2022/11/25 13:15:03;;;;;;;;;;;19.40;99.90;;;;;;5053015;28;20324;-82
2022/11/25 13:17:31;;;;;;;;;;;18.90;99.90;;;;;;5047427;28;19923;-82
2022/11/25 13:20:15;;;;;;;;;;;18.80;99.90;;;;;;5052789;28;20003;-82
2022/11/25 13:22:40;;;;;;;;;;;19.10;99.90;;;;;;5053509;28;19916;-82
2022/11/25 13:25:21;;;;;;;;;;;19.50;99.90;;;;;;5052858;28;19909;-82
2022/11/25 13:27:52;;;;;;;;;;;18.80;99.90;;;;;;5052801;28;20290;-82
2022/11/25 13:30:30;;;;;;;;;;;18.30;99.90;;;;;;5053695;28;19919;-83
2022/11/25 13:32:56;;;;;;;;;;;17.60;99.90;;;;;;5054866;28;19992;-83
2022/11/25 13:35:23;;;;;;;;;;;17.10;99.90;;;;;;5038557;28;19952;-81
2022/11/25 13:37:49;;;;;;;;;;;16.70;99.90;;;;;;5032584;28;19920;-81
2022/11/25 13:40:17;;;;;;;;;;;16.40;99.90;;;;;;5031403;28;19916;-81
2022/11/25 13:42:43;;;;;;;;;;;16.00;99.90;;;;;;5032369;28;19916;-81
2022/11/25 13:45:23;;;;;;;;;;;15.80;99.90;;;;;;5034829;28;19917;-83
2022/11/25 13:47:50;;;;;;;;;;;15.50;99.90;;;;;;5032839;28;19959;-82
2022/11/25 13:50:16;;;;;;;;;;;15.40;99.90;;;;;;5032772;28;19913;-83
2022/11/25 13:52:58;;;;;;;;;;;15.20;99.90;;;;;;5033217;28;20267;-83
2022/11/25 13:55:30;;;;;;;;;;;15.10;99.90;;;;;;5033910;28;19913;-83
2022/11/25 13:58:00;;;;;;;;;;;15.10;99.90;;;;;;5035890;28;20343;-83
2022/11/25 14:00:32;;;;;;;;;;;15.00;99.90;;;;;;5034683;28;19915;-83
2022/11/25 14:03:16;;;;;;;;;;;14.90;99.90;;;;;;5085048;28;19916;-82
2022/11/25 14:05:53;;;;;;;;;;;14.70;99.90;;;;;;5093927;28;19915;-82
2022/11/25 14:08:31;;;;;;;;;;;14.70;99.90;;;;;;5090015;28;19930;-81
2022/11/25 14:10:56;;;;;;;;;;;14.60;99.90;;;;;;5117580;28;19924;-83
2022/11/25 14:13:40;;;;;;;;;;;14.70;99.90;;;;;;5093578;28;20405;-83
2022/11/25 14:16:06;;;;;;;;;;;14.70;99.90;;;;;;4934758;28;19951;-81
2022/11/25 14:18:46;;;;;;;;;;;14.70;99.90;;;;;;4951827;28;19974;-82
2022/11/25 14:21:28;;;;;;;;;;;14.70;99.90;;;;;;4925016;29;20291;-80
2022/11/25 14:26:39;;;;;;;;;;;14.60;99.90;;;;;;5091368;28;19912;-83
2022/11/25 14:29:11;;;;;;;;;;;14.60;99.90;;;;;;5125134;28;19912;-82
2022/11/25 14:31:39;;;;;;;;;;;14.60;99.90;;;;;;5091759;28;19930;-82
2022/11/25 14:34:24;;;;;;;;;;;14.60;99.90;;;;;;5093156;28;20328;-82
2022/11/25 14:36:53;;;;;;;;;;;14.50;99.90;;;;;;5088089;28;19947;-80
2022/11/25 14:39:26;;;;;;;;;;;14.40;99.90;;;;;;5090987;28;19908;-81
2022/11/25 14:41:56;;;;;;;;;;;14.30;99.90;;;;;;5089425;28;19908;-80
2022/11/25 14:44:24;;;;;;;;;;;14.10;99.90;;;;;;5089394;28;19909;-80
2022/11/25 14:46:51;;;;;;;;;;;14.20;99.90;;;;;;5090150;28;20278;-80
2022/11/25 14:49:17;;;;;;;;;;;14.20;99.90;;;;;;5090558;28;19916;-80